createdAt,value
2019-05-26T00:01:02.470Z,53.68
2019-05-26T00:03:29.328Z,50.43
2019-05-26T00:05:56.329Z,55.58
2019-05-26T00:08:23.212Z,52.08
2019-05-26T00:10:50.052Z,53.50
2019-05-26T00:13:17.067Z,48.83
2019-05-26T00:15:43.671Z,51.53
2019-05-26T00:18:11.208Z,49.90
2019-05-26T00:20:39.235Z,48.78
2019-05-26T00:23:08.493Z,49.77
2019-05-26T00:25:35.391Z,46.02
2019-05-26T00:28:02.237Z,49.98
2019-05-26T00:30:30.499Z,49.08
2019-05-26T00:32:57.448Z,46.28
2019-05-26T00:35:24.635Z,50.50
2019-05-26T00:37:51.601Z,51.08
2019-05-26T00:40:20.287Z,49.83
2019-05-26T00:42:53.609Z,47.43
2019-05-26T00:45:18.652Z,50.48
2019-05-26T00:47:45.626Z,51.25
2019-05-26T00:50:12.977Z,48.92
2019-05-26T00:52:39.907Z,48.73
2019-05-26T00:55:07.047Z,49.18
2019-05-26T00:57:34.503Z,51.28
2019-05-26T01:00:01.464Z,51.40
2019-05-26T01:02:29.684Z,47.78
2019-05-26T01:04:56.469Z,49.30
2019-05-26T01:07:23.790Z,45.23
2019-05-26T01:09:50.629Z,44.10
2019-05-26T01:12:21.649Z,45.03
2019-05-26T01:14:51.723Z,43.52
2019-05-26T01:17:18.878Z,44.98
2019-05-26T01:19:46.217Z,41.58
2019-05-26T01:22:13.042Z,42.13
2019-05-26T01:24:40.706Z,42.93
2019-05-26T01:27:09.186Z,43.20
2019-05-26T01:29:36.064Z,42.60
2019-05-26T01:32:03.654Z,40.30
2019-05-26T01:34:30.563Z,44.05
2019-05-26T01:36:59.658Z,50.05
2019-05-26T01:39:27.013Z,44.23
2019-05-26T01:41:54.183Z,46.77
2019-05-26T01:44:21.758Z,43.80
2019-05-26T01:46:48.979Z,43.92
2019-05-26T01:49:15.909Z,42.03
2019-05-26T01:51:42.956Z,44.98
2019-05-26T01:54:12.063Z,42.08
2019-05-26T01:56:38.988Z,34.00
2019-05-26T01:59:05.925Z,33.45
2019-05-26T02:01:33.242Z,34.03
2019-05-26T02:04:00.223Z,34.83
2019-05-26T02:06:28.512Z,29.80
2019-05-26T02:08:56.293Z,28.98
2019-05-26T02:11:23.610Z,30.15
2019-05-26T02:13:50.532Z,28.27
2019-05-26T02:16:18.496Z,27.45
2019-05-26T02:18:47.268Z,29.42
2019-05-26T02:21:45.712Z,27.87
2019-05-26T02:24:37.702Z,32.20
2019-05-26T02:27:04.462Z,29.12
2019-05-26T02:29:35.019Z,31.50
2019-05-26T02:32:21.414Z,27.70
2019-05-26T02:35:33.943Z,26.55
2019-05-26T02:38:06.479Z,29.07
2019-05-26T02:40:32.837Z,27.65
2019-05-26T02:43:46.608Z,28.62
2019-05-26T02:46:13.443Z,29.18
2019-05-26T02:48:40.527Z,28.38
2019-05-26T02:51:19.568Z,34.13
2019-05-26T02:53:46.685Z,29.18
2019-05-26T02:56:13.914Z,28.02
2019-05-26T02:59:07.402Z,26.97
2019-05-26T03:01:28.365Z,29.25
2019-05-26T03:03:57.470Z,30.40
2019-05-26T03:07:13.573Z,29.82
2019-05-26T03:10:19.638Z,30.32
2019-05-26T03:12:03.983Z,32.78
2019-05-26T03:14:42.533Z,29.50
2019-05-26T03:17:09.727Z,30.68
2019-05-26T03:19:40.105Z,35.95
2019-05-26T03:22:07.326Z,30.20
2019-05-26T03:24:37.431Z,29.87
2019-05-26T03:27:04.887Z,27.93
2019-05-26T03:29:31.757Z,31.75
2019-05-26T03:31:58.585Z,32.03
2019-05-26T03:34:25.858Z,33.42
2019-05-26T03:36:52.880Z,34.65
2019-05-26T03:39:20.130Z,31.10
2019-05-26T03:41:47.016Z,34.80
2019-05-26T03:44:14.130Z,33.98
2019-05-26T03:46:41.360Z,34.55
2019-05-26T03:49:08.524Z,34.53
2019-05-26T03:51:35.465Z,36.45
2019-05-26T03:54:02.566Z,35.33
2019-05-26T03:56:32.548Z,34.43
2019-05-26T03:58:59.387Z,42.48
2019-05-26T04:01:26.965Z,40.23
2019-05-26T04:03:54.163Z,35.33
2019-05-26T04:06:21.356Z,35.92
2019-05-26T04:08:48.523Z,38.30
2019-05-26T04:11:15.937Z,37.88
2019-05-26T04:13:47.884Z,35.70
2019-05-26T04:16:14.963Z,36.17
2019-05-26T04:21:46.875Z,39.88
2019-05-26T04:24:13.985Z,34.85
2019-05-26T04:26:41.798Z,32.50
2019-05-26T04:29:10.659Z,38.45
2019-05-26T04:31:37.507Z,37.53
2019-05-26T04:34:04.358Z,35.85
2019-05-26T04:36:31.459Z,38.75
2019-05-26T04:38:58.351Z,36.63
2019-05-26T04:41:25.236Z,37.25
2019-05-26T04:43:53.161Z,33.88
2019-05-26T04:46:28.918Z,36.93
2019-05-26T04:48:56.655Z,34.67
2019-05-26T04:51:23.570Z,34.70
2019-05-26T04:53:50.382Z,33.88
2019-05-26T04:56:19.067Z,37.28
2019-05-26T04:58:46.231Z,35.13
2019-05-26T05:01:13.458Z,32.08
2019-05-26T05:03:43.322Z,37.17
2019-05-26T05:06:12.178Z,36.15
2019-05-26T05:08:41.958Z,35.70
2019-05-26T05:11:09.084Z,35.17
2019-05-26T05:13:36.164Z,34.73
2019-05-26T05:16:03.012Z,37.45
2019-05-26T05:18:32.346Z,35.90
2019-05-26T05:20:59.413Z,36.20
2019-05-26T05:23:26.890Z,35.45
2019-05-26T05:25:57.114Z,33.98
2019-05-26T05:28:24.572Z,34.43
2019-05-26T05:30:51.538Z,35.08
2019-05-26T05:33:18.961Z,36.60
2019-05-26T05:35:46.317Z,34.15
2019-05-26T05:38:13.810Z,35.90
2019-05-26T05:40:56.366Z,32.38
2019-05-26T05:43:10.339Z,33.90
2019-05-26T05:45:39.982Z,37.08
2019-05-26T05:48:09.386Z,32.35
2019-05-26T05:50:39.050Z,31.68
2019-05-26T05:53:05.413Z,35.30
2019-05-26T05:55:32.225Z,34.60
2019-05-26T05:57:59.498Z,33.88
2019-05-26T06:00:27.266Z,31.87
2019-05-26T06:02:54.311Z,31.27
2019-05-26T06:08:22.994Z,30.02
2019-05-26T06:10:50.229Z,28.57
2019-05-26T06:16:04.505Z,29.40
2019-05-26T06:18:31.804Z,29.55
2019-05-26T06:20:58.951Z,28.98
2019-05-26T06:23:27.948Z,31.77
2019-05-26T06:25:54.802Z,31.60
2019-05-26T06:28:29.727Z,30.80
2019-05-26T06:31:11.920Z,31.07
2019-05-26T06:34:15.672Z,30.02
2019-05-26T06:36:30.456Z,29.52
2019-05-26T06:38:58.454Z,30.05
2019-05-26T06:41:33.343Z,28.77
2019-05-26T06:44:53.140Z,31.30
2019-05-26T06:50:25.136Z,32.55
2019-05-26T06:52:52.248Z,34.05
2019-05-26T06:55:23.569Z,34.08
2019-05-26T06:57:50.884Z,28.55
2019-05-26T07:00:20.508Z,33.15
2019-05-26T07:02:47.287Z,31.45
2019-05-26T07:05:20.272Z,31.70
2019-05-26T07:07:49.606Z,33.63
2019-05-26T07:10:17.547Z,32.50
2019-05-26T07:13:04.441Z,31.07
2019-05-26T07:15:31.303Z,31.85
2019-05-26T07:17:58.285Z,33.20
2019-05-26T07:20:26.210Z,36.23
2019-05-26T07:22:52.827Z,34.23
2019-05-26T07:25:19.969Z,30.50
2019-05-26T07:27:46.786Z,32.73
2019-05-26T07:30:14.246Z,32.83
2019-05-26T07:32:41.527Z,35.65
2019-05-26T07:35:08.788Z,31.77
2019-05-26T07:37:35.856Z,33.10
2019-05-26T07:40:05.792Z,32.60
2019-05-26T07:42:33.815Z,37.15
2019-05-26T07:45:00.889Z,32.60
2019-05-26T07:47:27.671Z,33.98
2019-05-26T07:49:54.868Z,33.70
2019-05-26T07:52:21.978Z,33.88
2019-05-26T07:54:49.048Z,34.38
2019-05-26T07:57:15.985Z,35.10
2019-05-26T07:59:43.019Z,35.28
2019-05-26T08:02:10.126Z,36.98
2019-05-26T08:04:37.042Z,36.20
2019-05-26T08:07:04.391Z,32.17
2019-05-26T08:09:32.475Z,33.00
2019-05-26T08:11:59.287Z,32.38
2019-05-26T08:14:28.027Z,33.63
2019-05-26T08:16:54.693Z,34.13
2019-05-26T08:19:21.651Z,31.62
2019-05-26T08:21:48.317Z,34.83
2019-05-26T08:24:15.095Z,31.73
2019-05-26T08:26:41.498Z,33.13
2019-05-26T08:29:08.399Z,36.08
2019-05-26T08:31:35.130Z,29.55
2019-05-26T08:34:03.156Z,27.27
2019-05-26T08:36:30.681Z,32.15
2019-05-26T08:38:57.561Z,32.70
2019-05-26T08:41:24.659Z,29.35
2019-05-26T08:43:51.422Z,29.52
2019-05-26T08:46:18.467Z,31.73
2019-05-26T08:48:46.068Z,32.00
2019-05-26T08:51:12.905Z,33.02
2019-05-26T08:53:39.796Z,37.40
2019-05-26T08:56:06.891Z,36.55
2019-05-26T08:58:33.931Z,38.05
2019-05-26T09:01:00.577Z,36.55
2019-05-26T09:03:27.201Z,33.42
2019-05-26T09:05:53.956Z,28.15
2019-05-26T09:08:20.697Z,29.85
2019-05-26T09:10:47.254Z,29.25
2019-05-26T09:13:13.873Z,27.55
2019-05-26T09:15:41.891Z,30.48
2019-05-26T09:18:08.449Z,27.77
2019-05-26T09:20:34.945Z,28.07
2019-05-26T09:23:02.649Z,32.28
2019-05-26T09:25:29.193Z,32.30
2019-05-26T09:27:55.623Z,30.00
2019-05-26T09:30:22.762Z,30.27
2019-05-26T09:32:49.296Z,28.92
2019-05-26T09:35:16.298Z,30.35
2019-05-26T09:37:42.817Z,31.50
2019-05-26T09:40:09.846Z,28.60
2019-05-26T09:42:36.397Z,29.23
2019-05-26T09:45:05.935Z,28.92
2019-05-26T09:47:32.549Z,27.32
2019-05-26T09:50:00.328Z,24.98
2019-05-26T09:52:26.834Z,27.00
2019-05-26T09:54:53.695Z,27.27
2019-05-26T09:57:20.131Z,28.62
2019-05-26T09:59:46.671Z,27.00
2019-05-26T10:02:13.274Z,25.52
2019-05-26T10:04:40.508Z,27.87
2019-05-26T10:07:12.183Z,28.32
2019-05-26T10:09:37.192Z,24.27
2019-05-26T10:12:06.685Z,24.02
2019-05-26T10:14:33.081Z,21.68
2019-05-26T10:16:59.880Z,18.55
2019-05-26T10:19:26.687Z,17.73
2019-05-26T10:21:53.219Z,16.60
2019-05-26T10:24:19.776Z,20.20
2019-05-26T10:26:46.208Z,13.80
2019-05-26T10:29:13.253Z,17.40
2019-05-26T10:31:39.895Z,19.07
2019-05-26T10:34:06.602Z,18.87
2019-05-26T10:36:33.063Z,15.35
2019-05-26T10:38:59.495Z,16.95
2019-05-26T10:41:25.964Z,14.15
2019-05-26T10:43:52.509Z,13.40
2019-05-26T10:46:19.113Z,14.55
2019-05-26T10:48:45.798Z,11.65
2019-05-26T10:51:12.401Z,16.12
2019-05-26T10:53:38.867Z,12.85
2019-05-26T10:56:05.557Z,13.20
2019-05-26T10:58:32.017Z,12.40
2019-05-26T11:00:58.575Z,14.50
2019-05-26T11:03:25.142Z,13.35
2019-05-26T11:05:51.785Z,12.50
2019-05-26T11:08:18.440Z,11.55
2019-05-26T11:10:44.984Z,8.95
2019-05-26T11:13:11.547Z,8.70
2019-05-26T11:15:38.168Z,6.17
2019-05-26T11:18:05.005Z,7.72
2019-05-26T11:20:31.797Z,9.03
2019-05-26T11:22:58.368Z,8.05
2019-05-26T11:25:24.919Z,7.45
2019-05-26T11:27:51.358Z,6.83
2019-05-26T11:30:18.746Z,5.97
2019-05-26T11:32:45.299Z,5.97
2019-05-26T11:35:13.526Z,4.92
2019-05-26T11:37:40.160Z,7.65
2019-05-26T11:40:07.397Z,8.28
2019-05-26T11:42:34.241Z,10.93
2019-05-26T11:45:00.794Z,7.10
2019-05-26T11:47:27.334Z,6.60
2019-05-26T11:49:53.844Z,6.45
2019-05-26T11:52:20.496Z,5.95
2019-05-26T11:54:46.958Z,5.95
2019-05-26T11:57:13.604Z,5.83
2019-05-26T11:59:40.193Z,6.30
2019-05-26T12:02:06.985Z,10.45
2019-05-26T12:04:33.404Z,8.55
2019-05-26T12:06:59.839Z,6.97
2019-05-26T12:09:26.323Z,7.00
2019-05-26T12:11:52.745Z,9.18
2019-05-26T12:14:33.465Z,5.92
2019-05-26T12:16:47.688Z,6.65
2019-05-26T12:19:14.178Z,5.95
2019-05-26T12:21:40.726Z,6.28
2019-05-26T12:24:07.902Z,7.42
2019-05-26T12:26:34.541Z,9.03
2019-05-26T12:29:01.172Z,6.70
2019-05-26T12:31:27.708Z,5.60
2019-05-26T12:33:54.297Z,7.12
2019-05-26T12:36:21.299Z,9.35
2019-05-26T12:38:50.674Z,9.98
2019-05-26T12:41:18.648Z,7.12
2019-05-26T12:43:45.062Z,8.05
2019-05-26T12:46:11.707Z,8.40
2019-05-26T12:48:38.439Z,8.38
2019-05-26T12:51:05.986Z,7.85
2019-05-26T12:53:32.925Z,8.38
2019-05-26T12:56:01.449Z,5.97
2019-05-26T12:58:32.535Z,6.70
2019-05-26T13:00:59.695Z,11.70
2019-05-26T13:03:26.955Z,6.15
2019-05-26T13:05:54.481Z,7.50
2019-05-26T13:08:27.396Z,6.67
2019-05-26T13:10:58.002Z,10.28
2019-05-26T13:13:25.197Z,9.83
2019-05-26T13:15:55.667Z,9.55
2019-05-26T13:18:22.386Z,8.23
2019-05-26T13:20:49.045Z,9.75
2019-05-26T13:23:16.195Z,8.20
2019-05-26T13:25:42.949Z,8.60
2019-05-26T13:28:09.683Z,11.70
2019-05-26T13:30:36.313Z,8.83
2019-05-26T13:33:03.232Z,9.75
2019-05-26T13:35:29.863Z,9.68
2019-05-26T13:37:56.428Z,7.40
2019-05-26T13:40:25.058Z,7.78
2019-05-26T13:42:52.611Z,5.83
2019-05-26T13:45:22.739Z,7.87
2019-05-26T13:47:48.624Z,9.73
2019-05-26T13:50:15.731Z,9.10
2019-05-26T13:52:42.625Z,8.93
2019-05-26T13:55:09.960Z,9.83
2019-05-26T13:57:38.442Z,11.15
2019-05-26T14:00:09.115Z,7.70
2019-05-26T14:02:36.843Z,9.83
2019-05-26T14:05:08.956Z,8.83
2019-05-26T14:07:35.473Z,9.75
2019-05-26T14:10:03.403Z,9.18
2019-05-26T14:12:29.977Z,12.65
2019-05-26T14:14:56.750Z,9.40
2019-05-26T14:17:25.372Z,7.72
2019-05-26T14:19:54.028Z,5.70
2019-05-26T14:22:20.358Z,7.50
2019-05-26T14:24:54.073Z,7.30
2019-05-26T14:27:15.237Z,10.30
2019-05-26T14:29:41.838Z,16.07
2019-05-26T14:32:08.778Z,8.53
2019-05-26T14:34:35.447Z,8.90
2019-05-26T14:37:02.177Z,12.98
2019-05-26T14:39:28.645Z,9.45
2019-05-26T14:41:55.375Z,9.40
2019-05-26T14:44:22.334Z,8.55
2019-05-26T14:46:48.926Z,9.88
2019-05-26T14:49:15.657Z,6.67
2019-05-26T14:51:42.208Z,9.55
2019-05-26T14:54:08.654Z,5.97
2019-05-26T14:56:35.325Z,9.78
2019-05-26T14:59:04.015Z,9.45
2019-05-26T15:01:30.486Z,7.83
2019-05-26T15:03:57.004Z,7.50
2019-05-26T15:06:24.886Z,6.55
2019-05-26T15:08:51.312Z,7.83
2019-05-26T15:11:17.874Z,11.15
2019-05-26T15:13:44.628Z,9.45
2019-05-26T15:16:12.160Z,8.05
2019-05-26T15:18:38.538Z,9.98
2019-05-26T15:21:05.247Z,11.48
2019-05-26T15:23:33.846Z,15.85
2019-05-26T15:26:00.527Z,13.50
2019-05-26T15:28:27.088Z,14.00
2019-05-26T15:30:55.412Z,11.10
2019-05-26T15:33:22.994Z,12.33
2019-05-26T15:35:49.540Z,10.78
2019-05-26T15:38:16.057Z,9.60
2019-05-26T15:40:42.572Z,10.28
2019-05-26T15:43:09.553Z,10.75
2019-05-26T15:45:36.351Z,8.50
2019-05-26T15:48:04.416Z,7.20
2019-05-26T15:50:31.049Z,9.05
2019-05-26T15:52:57.538Z,6.00
2019-05-26T15:55:24.191Z,6.60
2019-05-26T15:57:50.837Z,7.25
2019-05-26T16:00:18.135Z,9.03
2019-05-26T16:02:44.998Z,5.75
2019-05-26T16:05:12.366Z,6.78
2019-05-26T16:07:42.273Z,6.40
2019-05-26T16:10:09.329Z,7.80
2019-05-26T16:12:35.955Z,6.37
2019-05-26T16:15:04.896Z,8.30
2019-05-26T16:17:31.995Z,7.33
2019-05-26T16:19:58.774Z,5.42
2019-05-26T16:22:25.306Z,6.83
2019-05-26T16:24:51.953Z,6.35
2019-05-26T16:27:19.874Z,9.08
2019-05-26T16:29:46.902Z,5.87
2019-05-26T16:32:13.501Z,5.12
2019-05-26T16:34:39.980Z,4.03
2019-05-26T16:37:06.599Z,6.17
2019-05-26T16:39:36.985Z,6.70
2019-05-26T16:42:01.711Z,6.45
2019-05-26T16:44:28.154Z,5.67
2019-05-26T16:46:56.784Z,5.50
2019-05-26T16:49:24.356Z,5.92
2019-05-26T16:51:51.307Z,7.05
2019-05-26T16:54:17.935Z,4.85
2019-05-26T16:56:44.490Z,7.60
2019-05-26T16:59:11.901Z,6.37
2019-05-26T17:01:38.773Z,6.20
2019-05-26T17:04:08.383Z,5.03
2019-05-26T17:06:35.114Z,5.97
2019-05-26T17:09:01.775Z,3.87
2019-05-26T17:11:29.427Z,4.08
2019-05-26T17:13:58.258Z,5.55
2019-05-26T17:16:27.184Z,5.00
2019-05-26T17:18:56.162Z,5.65
2019-05-26T17:21:28.884Z,4.47
2019-05-26T17:23:55.955Z,8.23
2019-05-26T17:26:22.804Z,8.03
2019-05-26T17:28:49.760Z,6.80
2019-05-26T17:31:19.129Z,5.30
2019-05-26T17:33:45.650Z,4.15
2019-05-26T17:36:14.415Z,3.15
2019-05-26T17:38:41.008Z,6.95
2019-05-26T17:41:08.010Z,2.33
2019-05-26T17:43:34.804Z,4.17
2019-05-26T17:46:01.480Z,2.25
2019-05-26T17:48:29.230Z,2.58
2019-05-26T17:50:55.964Z,3.42
2019-05-26T17:53:22.530Z,4.47
2019-05-26T17:55:49.322Z,1.20
2019-05-26T17:58:16.277Z,5.15
2019-05-26T18:00:43.174Z,2.85
2019-05-26T18:03:09.946Z,3.10
2019-05-26T18:05:36.976Z,2.08
2019-05-26T18:08:03.613Z,1.98
2019-05-26T18:10:30.566Z,2.87
2019-05-26T18:12:57.624Z,4.47
2019-05-26T18:15:25.361Z,5.12
2019-05-26T18:17:52.764Z,3.62
2019-05-26T18:20:19.537Z,2.80
2019-05-26T18:22:46.400Z,3.20
2019-05-26T18:25:16.596Z,2.55
2019-05-26T18:27:43.801Z,1.43
2019-05-26T18:30:11.675Z,2.30
2019-05-26T18:32:39.912Z,3.58
2019-05-26T18:35:08.075Z,3.77
2019-05-26T18:37:36.664Z,2.70
2019-05-26T18:40:07.240Z,4.97
2019-05-26T18:42:33.836Z,4.83
2019-05-26T18:45:00.564Z,3.10
2019-05-26T18:47:27.388Z,2.50
2019-05-26T18:49:54.530Z,4.25
2019-05-26T18:52:21.933Z,4.67
2019-05-26T18:54:48.749Z,3.52
2019-05-26T18:57:15.491Z,4.28
2019-05-26T18:59:44.473Z,2.47
2019-05-26T19:02:11.939Z,4.80
2019-05-26T19:04:38.642Z,6.50
2019-05-26T19:07:05.247Z,5.35
2019-05-26T19:09:32.199Z,4.00
2019-05-26T19:11:59.034Z,4.12
2019-05-26T19:14:25.767Z,4.62
2019-05-26T19:16:52.483Z,5.30
2019-05-26T19:19:19.736Z,3.08
2019-05-26T19:21:46.689Z,4.47
2019-05-26T19:24:13.332Z,5.55
2019-05-26T19:26:40.338Z,2.75
2019-05-26T19:29:16.318Z,3.42
2019-05-26T19:31:43.233Z,4.45
2019-05-26T19:34:10.037Z,6.03
2019-05-26T19:36:36.639Z,2.87
2019-05-26T19:39:06.707Z,3.50
2019-05-26T19:41:33.741Z,5.50
2019-05-26T19:44:00.451Z,5.25
2019-05-26T19:46:27.305Z,4.22
2019-05-26T19:48:55.381Z,6.35
2019-05-26T19:51:22.279Z,3.17
2019-05-26T19:53:50.303Z,4.85
2019-05-26T19:56:17.259Z,4.03
2019-05-26T19:58:44.146Z,5.25
2019-05-26T20:01:11.159Z,4.75
2019-05-26T20:03:38.375Z,4.10
2019-05-26T20:06:05.543Z,4.72
2019-05-26T20:08:32.596Z,4.05
2019-05-26T20:10:59.282Z,4.17
2019-05-26T20:13:26.178Z,5.15
2019-05-26T20:15:53.268Z,6.00
2019-05-26T20:18:20.215Z,4.97
2019-05-26T20:20:47.626Z,3.75
2019-05-26T20:23:14.541Z,6.12
2019-05-26T20:25:44.268Z,7.65
2019-05-26T20:28:11.966Z,6.28
2019-05-26T20:30:39.094Z,7.20
2019-05-26T20:33:06.005Z,6.03
2019-05-26T20:35:32.812Z,6.15
2019-05-26T20:37:59.697Z,7.67
2019-05-26T20:40:26.574Z,9.00
2019-05-26T20:42:55.058Z,10.98
2019-05-26T20:45:23.229Z,9.80
2019-05-26T20:47:50.544Z,9.38
2019-05-26T20:50:28.494Z,12.93
2019-05-26T20:52:47.654Z,12.10
2019-05-26T20:55:15.304Z,12.35
2019-05-26T20:57:54.325Z,14.68
2019-05-26T21:00:24.461Z,13.32
2019-05-26T21:02:51.585Z,11.75
2019-05-26T21:05:18.633Z,15.13
2019-05-26T21:07:48.579Z,13.38
2019-05-26T21:10:15.891Z,16.37
2019-05-26T21:12:43.860Z,18.17
2019-05-26T21:15:11.654Z,17.95
2019-05-26T21:17:44.021Z,14.25
2019-05-26T21:20:11.970Z,13.00
2019-05-26T21:22:38.911Z,12.13
2019-05-26T21:25:09.038Z,14.33
2019-05-26T21:27:35.930Z,11.93
2019-05-26T21:30:14.992Z,13.10
2019-05-26T21:32:42.183Z,9.88
2019-05-26T21:35:10.656Z,8.63
2019-05-26T21:37:39.628Z,7.37
2019-05-26T21:40:26.760Z,7.83
2019-05-26T21:42:58.160Z,7.20
2019-05-26T21:45:28.056Z,8.45
2019-05-26T21:47:57.412Z,7.67
2019-05-26T21:50:34.800Z,6.75
2019-05-26T21:52:59.985Z,8.98
2019-05-26T21:55:26.678Z,8.58
2019-05-26T21:58:07.437Z,10.13
2019-05-26T22:00:37.205Z,8.73
2019-05-26T22:05:33.784Z,10.85
2019-05-26T22:08:00.867Z,11.68
2019-05-26T22:10:27.583Z,12.35
2019-05-26T22:12:54.410Z,11.38
2019-05-26T22:15:21.494Z,13.15
2019-05-26T22:17:48.287Z,11.90
2019-05-26T22:20:15.892Z,13.35
2019-05-26T22:22:42.631Z,13.28
2019-05-26T22:25:09.767Z,15.78
2019-05-26T22:27:36.827Z,16.40
2019-05-26T22:30:08.729Z,16.00
2019-05-26T22:32:35.845Z,18.62
2019-05-26T22:35:05.694Z,17.92
2019-05-26T22:37:32.591Z,18.85
2019-05-26T22:40:00.147Z,13.75
2019-05-26T22:42:26.849Z,12.23
2019-05-26T22:44:53.507Z,11.65
2019-05-26T22:47:20.684Z,14.55
2019-05-26T22:49:47.497Z,12.58
2019-05-26T22:52:17.550Z,10.55
2019-05-26T22:54:42.841Z,10.32
2019-05-26T22:57:09.746Z,10.40
2019-05-26T22:59:36.512Z,11.43
2019-05-26T23:02:03.850Z,10.00
2019-05-26T23:04:30.637Z,9.55
2019-05-26T23:06:57.284Z,9.85
2019-05-26T23:09:23.810Z,9.68
2019-05-26T23:11:50.400Z,12.13
2019-05-26T23:14:17.017Z,11.53
2019-05-26T23:16:44.301Z,10.32
2019-05-26T23:19:19.177Z,10.80
2019-05-26T23:21:39.645Z,15.95
2019-05-26T23:24:08.729Z,14.23
2019-05-26T23:26:35.493Z,14.65
2019-05-26T23:29:02.524Z,14.33
2019-05-26T23:31:29.373Z,14.33
2019-05-26T23:33:56.409Z,17.25
2019-05-26T23:36:25.053Z,16.37
2019-05-26T23:39:01.495Z,18.40
2019-05-26T23:41:29.811Z,18.80
2019-05-26T23:43:56.653Z,20.23
2019-05-26T23:46:23.937Z,18.85
2019-05-26T23:48:51.107Z,19.40
2019-05-26T23:51:19.285Z,19.57
2019-05-26T23:53:46.435Z,22.87
2019-05-26T23:56:13.273Z,23.98
2019-05-26T23:58:40.100Z,22.22
